Time;durP1;ratioP1;P1;durP2;ratioP2;P2;SDS_P1;SDS_P2;PMS_P1;PMS_P2;Temp;Humidity;BMP_temperature;BMP_pressure;BME280_temperature;BME280_humidity;BME280_pressure;Samples;Min_cycle;Max_cycle;Signal;HPM_P1;HPM_P2
2022/10/04 00:01:58;;;;;;;5.88;3.95;;;;;;;11.18;97.65;102426.53;4954837;28;20054;-78
2022/10/04 00:04:34;;;;;;;5.57;3.97;;;;;;;11.18;97.60;102423.84;4956378;28;20501;-78
2022/10/04 00:07:15;;;;;;;6.00;4.20;;;;;;;11.19;97.96;102424.63;4955483;28;21102;-78
2022/10/04 00:09:49;;;;;;;7.35;5.25;;;;;;;11.19;98.03;102425.38;4955976;28;20421;-78
2022/10/04 00:12:24;;;;;;;8.52;5.38;;;;;;;11.19;98.16;102427.28;4956348;28;20489;-78
2022/10/04 00:14:54;;;;;;;8.13;4.88;;;;;;;11.19;98.39;102422.69;4955963;28;20106;-78
2022/10/04 00:17:26;;;;;;;5.82;4.60;;;;;;;11.20;98.28;102421.50;4956255;28;20487;-77
2022/10/04 00:19:54;;;;;;;11.02;4.60;;;;;;;11.19;97.93;102421.94;4955492;28;20052;-77
2022/10/04 00:22:29;;;;;;;10.10;4.70;;;;;;;11.18;98.07;102415.09;4956171;28;20043;-78
2022/10/04 00:25:08;;;;;;;6.88;4.40;;;;;;;11.17;98.19;102413.59;4955829;28;20495;-77
2022/10/04 00:27:37;;;;;;;6.90;4.70;;;;;;;11.16;98.35;102415.50;4955748;28;20083;-78
2022/10/04 00:30:03;;;;;;;5.82;4.32;;;;;;;11.15;98.10;102418.56;4955583;28;20099;-77
2022/10/04 00:32:39;;;;;;;6.10;4.63;;;;;;;11.14;98.25;102411.72;4955663;28;20138;-77
2022/10/04 00:35:23;;;;;;;4.25;3.85;;;;;;;11.12;97.91;102398.81;4955778;28;20083;-77
2022/10/04 00:37:58;;;;;;;10.25;5.15;;;;;;;11.11;98.53;102391.22;4955229;28;20090;-77
2022/10/04 00:40:32;;;;;;;12.45;5.93;;;;;;;11.11;98.50;102388.56;4955645;28;20129;-77
2022/10/04 00:43:07;;;;;;;7.07;5.00;;;;;;;11.10;98.78;102387.03;4955533;28;20442;-77
2022/10/04 00:45:38;;;;;;;13.13;6.07;;;;;;;11.10;98.94;102379.81;4955266;28;20059;-77
2022/10/04 00:48:25;;;;;;;7.00;5.67;;;;;;;11.09;99.05;102380.97;4955925;28;20055;-77
2022/10/04 00:51:10;;;;;;;10.52;6.05;;;;;;;11.09;98.94;102386.28;4953569;28;20050;-78
2022/10/04 00:53:58;;;;;;;8.98;6.40;;;;;;;11.08;99.46;102384.78;4954111;28;20056;-78
2022/10/04 00:56:31;;;;;;;12.15;6.35;;;;;;;11.07;99.10;102390.50;4954506;28;20063;-78
2022/10/04 00:58:58;;;;;;;10.13;5.90;;;;;;;11.05;99.47;102392.81;4953796;28;20043;-78
2022/10/04 01:01:27;;;;;;;8.52;6.13;;;;;;;11.03;99.27;102393.97;4953997;28;20412;-78
2022/10/04 01:03:56;;;;;;;9.50;6.78;;;;;;;11.02;99.35;102395.13;4954441;28;20047;-78
2022/10/04 01:06:25;;;;;;;9.38;6.00;;;;;;;11.03;99.30;102385.97;4955191;28;20058;-78
2022/10/04 01:09:00;;;;;;;11.00;6.10;;;;;;;11.03;99.48;102370.00;4955025;28;20489;-78
2022/10/04 01:11:30;;;;;;;11.60;6.25;;;;;;;11.02;99.11;102376.47;4955206;28;20565;-78
2022/10/04 01:14:10;;;;;;;7.22;6.35;;;;;;;11.02;98.94;102371.16;4954916;28;20063;-78
2022/10/04 01:16:36;;;;;;;8.63;6.35;;;;;;;11.03;99.35;102361.25;4953842;28;20052;-78
2022/10/04 01:19:21;;;;;;;10.15;6.82;;;;;;;11.02;98.96;102370.41;4954323;28;20497;-78
2022/10/04 01:22:13;;;;;;;9.85;7.30;;;;;;;11.03;99.50;102363.91;4954708;28;20048;-78
2022/10/04 01:24:42;;;;;;;11.43;8.68;;;;;;;11.01;99.19;102363.56;4954590;28;20131;-77
2022/10/04 01:27:30;;;;;;;10.15;7.88;;;;;;;10.98;99.29;102349.13;4954603;28;20066;-77
2022/10/04 01:29:57;;;;;;;9.23;8.13;;;;;;;10.95;99.42;102343.84;4954918;28;20051;-79
2022/10/04 01:32:24;;;;;;;12.90;8.25;;;;;;;10.92;99.63;102336.66;4954265;28;20048;-77
2022/10/04 01:34:51;;;;;;;14.45;8.70;;;;;;;10.90;99.98;102333.63;4954831;28;20054;-77
2022/10/04 01:37:17;;;;;;;14.65;8.65;;;;;;;10.87;99.90;102326.44;4954344;28;20600;-80
2022/10/04 01:39:44;;;;;;;13.82;9.20;;;;;;;10.86;100.00;102327.59;4954271;28;20044;-77
2022/10/04 01:42:22;;;;;;;13.10;8.27;;;;;;;10.87;99.80;102319.22;4954995;28;20058;-77
2022/10/04 01:45:11;;;;;;;13.85;8.85;;;;;;;10.87;99.92;102324.53;4954752;28;20122;-77
2022/10/04 01:47:48;;;;;;;13.10;9.07;;;;;;;10.86;100.00;102332.94;4954309;28;20131;-77
2022/10/04 01:50:21;;;;;;;15.38;8.98;;;;;;;10.84;99.78;102333.34;4954953;28;20040;-77
2022/10/04 01:52:54;;;;;;;10.90;8.93;;;;;;;10.82;100.00;102330.31;4954347;28;20058;-77
2022/10/04 01:55:36;;;;;;;13.85;8.35;;;;;;;10.82;99.71;102327.66;4954877;28;20051;-77
2022/10/04 01:58:08;;;;;;;;;;;;;;;10.80;99.23;102324.63;4955026;28;20577;-77
2022/10/04 02:00:40;;;;;;;14.85;8.57;;;;;;;10.77;99.57;102314.06;4954208;28;19933;-77
2022/10/04 02:03:19;;;;;;;14.27;9.15;;;;;;;10.75;99.54;102313.69;4954876;28;20044;-77
2022/10/04 02:05:58;;;;;;;18.80;9.40;;;;;;;10.73;99.72;102298.13;4954282;28;20055;-77
2022/10/04 02:08:28;;;;;;;14.30;9.77;;;;;;;10.68;99.46;102293.25;4954485;28;20090;-79
2022/10/04 02:10:56;;;;;;;16.30;9.27;;;;;;;10.64;100.00;102298.63;4954396;28;20044;-78
2022/10/04 02:13:28;;;;;;;12.43;9.23;;;;;;;10.60;99.38;102289.16;4954654;28;20166;-77
2022/10/04 02:15:57;;;;;;;12.85;9.57;;;;;;;10.56;99.53;102278.56;4954037;28;20054;-77
2022/10/04 02:18:24;;;;;;;15.75;9.48;;;;;;;10.55;99.63;102277.06;4954160;28;20043;-77
2022/10/04 02:20:53;;;;;;;10.30;9.30;;;;;;;10.53;99.32;102283.94;4954297;28;20039;-80
2022/10/04 02:23:21;;;;;;;12.77;9.77;;;;;;;10.51;98.96;102281.66;4954403;28;20044;-79
2022/10/04 02:25:48;;;;;;;12.88;9.70;;;;;;;10.51;99.24;102278.25;4953887;28;20540;-77
2022/10/04 02:28:17;;;;;;;16.02;9.48;;;;;;;10.48;99.03;102269.16;4954544;28;20052;-77
2022/10/04 02:32:56;;;;;;;17.05;9.00;;;;;;;10.45;98.80;102256.66;4953120;28;20632;-77
2022/10/04 02:33:42;;;;;;;14.20;9.80;;;;;;;10.46;99.09;102249.41;4953751;28;20051;-77
2022/10/04 02:36:09;;;;;;;12.52;9.55;;;;;;;10.42;98.80;102246.78;4954127;28;20047;-77
2022/10/04 02:38:48;;;;;;;15.35;9.93;;;;;;;10.41;98.83;102245.28;4953377;28;20064;-77
2022/10/04 02:41:25;;;;;;;13.25;9.60;;;;;;;10.40;98.86;102246.44;4954533;28;20047;-77
2022/10/04 02:43:55;;;;;;;17.42;9.75;;;;;;;10.35;98.60;102241.59;4954062;28;20039;-77
2022/10/04 02:46:32;;;;;;;15.13;10.10;;;;;;;10.31;97.93;102241.63;4953165;28;20552;-77
2022/10/04 02:49:04;;;;;;;13.38;9.60;;;;;;;10.28;97.97;102237.13;4953622;28;20498;-77
2022/10/04 02:51:45;;;;;;;13.60;9.70;;;;;;;10.27;97.90;102235.59;4954004;28;20516;-77
2022/10/04 02:54:29;;;;;;;19.60;9.98;;;;;;;10.19;97.83;102238.72;4954107;28;20044;-77
2022/10/04 02:56:57;;;;;;;16.08;10.45;;;;;;;10.16;97.87;102234.97;4952214;28;20138;-77
2022/10/04 02:59:24;;;;;;;13.63;10.15;;;;;;;10.13;97.79;102227.78;4953153;28;20123;-79
2022/10/04 03:01:58;;;;;;;13.57;10.10;;;;;;;10.13;97.88;102233.09;4953707;28;20128;-79
2022/10/04 03:04:32;;;;;;;17.13;10.73;;;;;;;10.12;98.24;102228.16;4953804;28;20572;-80
2022/10/04 03:07:03;;;;;;;15.00;10.80;;;;;;;10.09;98.33;102224.41;4953466;28;20154;-79
2022/10/04 03:09:31;;;;;;;18.80;11.03;;;;;;;10.09;98.81;102224.41;4953786;28;20543;-79
2022/10/04 03:11:57;;;;;;;14.57;11.02;;;;;;;10.07;99.02;102220.63;4953408;28;20278;-79
2022/10/04 03:14:26;;;;;;;18.27;10.65;;;;;;;10.06;99.32;102211.88;4952838;28;20138;-79
2022/10/04 03:16:56;;;;;;;17.77;11.93;;;;;;;10.01;99.55;102207.75;4953502;28;20131;-79
2022/10/04 03:19:25;;;;;;;13.45;10.63;;;;;;;10.00;99.57;102211.56;4953554;28;20055;-79
2022/10/04 03:21:54;;;;;;;15.73;10.57;;;;;;;10.00;99.54;102210.81;4955366;28;20047;-79
2022/10/04 03:24:26;;;;;;;20.17;11.93;;;;;;;9.98;99.88;102199.84;4955740;28;20126;-79
2022/10/04 03:26:55;;;;;;;15.40;11.73;;;;;;;9.95;99.99;102198.00;4956677;28;20062;-79
2022/10/04 03:29:26;;;;;;;18.77;11.75;;;;;;;9.94;100.00;102196.47;4956449;28;20050;-79
2022/10/04 03:31:57;;;;;;;17.77;11.93;;;;;;;9.91;100.00;102191.97;4955076;28;20543;-79
2022/10/04 03:34:51;;;;;;;14.95;11.77;;;;;;;9.87;100.00;102192.00;4956504;28;20294;-79
2022/10/04 03:37:20;;;;;;;15.30;11.63;;;;;;;9.83;100.00;102187.88;4956411;28;20485;-79
2022/10/04 03:39:49;;;;;;;20.23;11.80;;;;;;;9.81;100.00;102176.88;4956261;28;20052;-80
2022/10/04 03:42:22;;;;;;;18.05;12.10;;;;;;;9.79;99.78;102187.16;4956271;28;20043;-79
2022/10/04 03:44:53;;;;;;;15.05;11.38;;;;;;;9.76;99.73;102195.94;4956040;28;20044;-79
2022/10/04 03:47:25;;;;;;;17.92;11.38;;;;;;;9.74;99.87;102198.22;4956292;28;20496;-79
2022/10/04 03:49:54;;;;;;;18.10;11.38;;;;;;;9.67;99.33;102191.09;4956653;28;20143;-79
2022/10/04 03:52:29;;;;;;;13.60;10.43;;;;;;;9.63;99.51;102180.50;4955355;28;20079;-79
2022/10/04 03:55:01;;;;;;;15.93;10.73;;;;;;;9.61;99.35;102172.16;4956533;28;20493;-79
2022/10/04 03:57:29;;;;;;;16.13;10.65;;;;;;;9.59;99.29;102182.47;4956052;28;20123;-79
2022/10/04 03:59:56;;;;;;;16.63;10.60;;;;;;;9.56;98.96;102179.84;4956277;28;20052;-79
2022/10/04 04:02:26;;;;;;;13.63;10.50;;;;;;;9.53;98.57;102177.97;4956587;28;20639;-79
2022/10/04 04:05:04;;;;;;;13.65;11.05;;;;;;;9.48;98.38;102179.16;4956178;28;20497;-79
2022/10/04 04:07:42;;;;;;;12.98;10.38;;;;;;;9.47;98.79;102182.22;4954877;28;20051;-79
2022/10/04 04:10:17;;;;;;;13.77;10.95;;;;;;;9.45;98.25;102176.53;4956454;28;20126;-79
2022/10/04 04:12:55;;;;;;;10.90;9.70;;;;;;;9.38;97.86;102173.94;4955394;28;20464;-77
2022/10/04 04:15:26;;;;;;;15.00;11.25;;;;;;;9.36;98.25;102169.78;4956352;28;20127;-78
2022/10/04 04:17:54;;;;;;;14.40;10.70;;;;;;;9.33;97.87;102175.88;4955990;28;20123;-77
2022/10/04 04:20:31;;;;;;;11.75;10.25;;;;;;;9.31;98.01;102164.16;4955070;28;20138;-77
2022/10/04 04:23:22;;;;;;;14.65;9.98;;;;;;;9.31;98.04;102166.81;4955745;28;20054;-77
2022/10/04 04:25:54;;;;;;;15.35;10.63;;;;;;;9.21;98.05;102159.69;4955353;28;20047;-77
2022/10/04 04:28:35;;;;;;;13.55;10.40;;;;;;;9.21;98.02;102165.00;4956057;28;20050;-78
2022/10/04 04:31:07;;;;;;;12.80;10.40;;;;;;;9.18;97.69;102163.91;4955994;28;20055;-77
2022/10/04 04:33:40;;;;;;;;;;;;;;;9.17;97.72;102159.75;4954781;28;20134;-77
2022/10/04 04:36:10;;;;;;;11.45;9.85;;;;;;;9.12;97.28;102159.41;4956284;28;19933;-77
2022/10/04 04:39:33;;;;;;;12.82;10.10;;;;;;;9.05;97.54;102164.81;4955477;28;20052;-77
2022/10/04 04:41:30;;;;;;;15.30;9.90;;;;;;;9.00;97.47;102163.31;4954926;28;20052;-77
2022/10/04 04:43:57;;;;;;;13.18;10.50;;;;;;;9.00;97.45;102152.69;4954211;28;20052;-77
2022/10/04 04:46:24;;;;;;;14.23;10.35;;;;;;;8.98;97.52;102160.31;4955410;28;20562;-77
2022/10/04 04:49:01;;;;;;;11.27;10.18;;;;;;;8.95;97.38;102150.47;4955468;28;20489;-77
2022/10/04 04:51:30;;;;;;;14.90;9.93;;;;;;;8.90;97.44;102151.63;4955343;28;20115;-77
2022/10/04 04:53:59;;;;;;;12.68;10.70;;;;;;;8.90;97.56;102151.63;4955250;28;20114;-77
2022/10/04 04:56:28;;;;;;;11.88;10.05;;;;;;;8.89;97.75;102147.47;4954740;28;20043;-77
2022/10/04 04:58:58;;;;;;;20.90;11.38;;;;;;;8.88;97.89;102145.97;4954994;28;20058;-77
2022/10/04 05:01:33;;;;;;;15.05;10.43;;;;;;;8.88;98.19;102139.91;4955334;28;20051;-77
2022/10/04 05:04:08;;;;;;;12.88;10.27;;;;;;;8.86;98.11;102152.81;4955207;28;20094;-79
2022/10/04 05:06:38;;;;;;;11.60;10.43;;;;;;;8.86;97.98;102145.59;4955169;28;20107;-79
2022/10/04 05:09:05;;;;;;;15.18;11.15;;;;;;;8.86;98.23;102147.50;4953865;28;20106;-79
2022/10/04 05:11:35;;;;;;;14.00;10.23;;;;;;;8.83;98.06;102146.38;4955122;28;20550;-80
2022/10/04 05:14:08;;;;;;;14.70;10.27;;;;;;;8.84;98.03;102149.78;4954990;28;20055;-80
2022/10/04 05:16:47;;;;;;;14.50;10.88;;;;;;;8.83;98.54;102154.34;4955138;28;20106;-80
2022/10/04 05:19:31;;;;;;;14.07;10.32;;;;;;;8.82;98.41;102154.75;4955169;28;20054;-78
2022/10/04 05:22:01;;;;;;;12.88;10.43;;;;;;;8.78;98.31;102152.16;4955225;28;20051;-77
2022/10/04 05:24:35;;;;;;;14.88;10.50;;;;;;;8.78;98.77;102156.69;4954381;28;20412;-78
2022/10/04 05:27:04;;;;;;;13.82;9.95;;;;;;;8.79;98.86;102158.97;4954972;28;20055;-77
2022/10/04 05:29:36;;;;;;;11.52;10.32;;;;;;;8.76;98.79;102157.09;4954835;28;20130;-77
2022/10/04 05:32:25;;;;;;;15.88;10.60;;;;;;;8.74;99.05;102154.06;4954928;28;20076;-77
2022/10/04 05:34:53;;;;;;;15.18;10.50;;;;;;;8.72;99.35;102148.41;4955199;28;20493;-77
2022/10/04 05:37:28;;;;;;;15.50;11.15;;;;;;;8.74;99.72;102151.41;4954250;28;20565;-77
2022/10/04 05:40:10;;;;;;;18.42;11.15;;;;;;;8.73;99.75;102159.78;4954269;28;20131;-77
2022/10/04 05:42:44;;;;;;;17.15;12.20;;;;;;;8.76;99.98;102151.03;4954813;28;20043;-77
2022/10/04 05:45:24;;;;;;;14.90;11.02;;;;;;;8.77;100.00;102155.19;4954690;28;20062;-77
2022/10/04 05:47:59;;;;;;;16.58;11.77;;;;;;;8.77;100.00;102171.13;4954353;28;20048;-77
2022/10/04 05:50:34;;;;;;;12.48;11.07;;;;;;;8.78;100.00;102167.31;4954909;28;20048;-77
2022/10/04 05:53:31;;;;;;;18.42;11.02;;;;;;;8.80;100.00;102159.69;4952785;28;20058;-77
2022/10/04 05:56:11;;;;;;;16.55;12.15;;;;;;;8.81;100.00;102161.94;4954038;28;20048;-77
2022/10/04 05:58:55;;;;;;;14.77;12.25;;;;;;;8.83;100.00;102158.91;4954534;28;20047;-77
2022/10/04 06:01:33;;;;;;;19.85;11.48;;;;;;;8.84;100.00;102158.50;4954616;28;20543;-78
2022/10/04 06:04:27;;;;;;;12.68;10.98;;;;;;;8.86;100.00;102164.19;4952631;28;20056;-78
2022/10/04 06:06:59;;;;;;;13.07;11.65;;;;;;;8.87;100.00;102165.69;4954393;28;20047;-77
2022/10/04 06:10:03;;;;;;;23.15;12.05;;;;;;;8.89;100.00;102160.00;4953997;28;20511;-77
2022/10/04 06:12:57;;;;;;;20.10;12.45;;;;;;;8.91;100.00;102165.66;4953912;28;20051;-77
2022/10/04 06:15:47;;;;;;;19.38;12.10;;;;;;;8.90;100.00;102172.88;4953898;28;20134;-77
2022/10/04 06:18:49;;;;;;;16.67;11.13;;;;;;;8.89;100.00;102174.03;4954321;28;20103;-77
2022/10/04 06:21:30;;;;;;;17.83;12.02;;;;;;;8.90;100.00;102174.78;4954681;28;20048;-77
2022/10/04 06:24:10;;;;;;;16.52;11.98;;;;;;;8.87;100.00;102168.34;4952118;28;20043;-77
2022/10/04 06:26:46;;;;;;;19.38;12.00;;;;;;;8.86;100.00;102169.50;4953882;28;20055;-77
2022/10/04 06:29:19;;;;;;;17.75;11.70;;;;;;;8.86;100.00;102172.16;4954075;28;20050;-77
2022/10/04 06:31:54;;;;;;;14.10;12.05;;;;;;;8.86;100.00;102161.53;4954782;28;20083;-77
2022/10/04 06:34:59;;;;;;;16.10;11.80;;;;;;;8.87;100.00;102157.72;4954901;28;20075;-77
2022/10/04 06:38:03;;;;;;;15.05;12.00;;;;;;;8.91;100.00;102150.50;4953622;28;20052;-79
2022/10/04 06:41:01;;;;;;;17.17;12.20;;;;;;;8.93;100.00;102148.19;4954150;28;20119;-74
2022/10/04 06:43:42;;;;;;;14.80;10.18;;;;;;;8.98;100.00;102142.47;4954458;28;20050;-74
2022/10/04 06:46:14;;;;;;;21.63;13.10;;;;;;;9.06;100.00;102148.47;4954572;28;20493;-74
2022/10/04 06:48:56;;;;;;;14.63;10.98;;;;;;;9.15;100.00;102146.09;4954153;28;20544;-74
2022/10/04 06:51:50;;;;;;;19.67;11.27;;;;;;;9.33;100.00;102143.25;4954301;28;20048;-77
2022/10/04 06:54:23;;;;;;;14.77;11.48;;;;;;;9.50;100.00;102130.91;4954500;28;20126;-77
2022/10/04 06:57:10;;;;;;;16.45;11.80;;;;;;;9.63;100.00;102129.97;4956856;28;20153;-78
2022/10/04 07:00:12;;;;;;;19.33;11.88;;;;;;;9.84;100.00;102122.88;4956554;28;20058;-77
2022/10/04 07:02:48;;;;;;;14.90;12.05;;;;;;;9.97;100.00;102123.84;4957618;28;20043;-78
2022/10/04 07:05:38;;;;;;;16.52;11.85;;;;;;;10.08;100.00;102116.47;4957341;28;20047;-78
2022/10/04 07:08:29;;;;;;;17.02;11.45;;;;;;;10.18;100.00;102112.91;4957649;28;20054;-78
2022/10/04 07:11:34;;;;;;;14.70;12.07;;;;;;;10.33;100.00;102122.22;4957800;28;20493;-79
2022/10/04 07:14:24;;;;;;;22.20;12.02;;;;;;;10.43;100.00;102119.75;4957387;28;20050;-79
2022/10/04 07:16:56;;;;;;;14.75;12.27;;;;;;;10.53;100.00;102127.59;4957728;28;20457;-79
2022/10/04 07:19:35;;;;;;;17.30;11.25;;;;;;;10.49;99.85;102126.13;4957483;28;20047;-79
2022/10/04 07:22:14;;;;;;;19.00;11.65;;;;;;;10.54;100.00;102125.69;4957700;28;20142;-78
2022/10/04 07:24:43;;;;;;;14.13;10.70;;;;;;;10.64;99.67;102130.09;4957508;28;20048;-78
2022/10/04 07:27:15;;;;;;;14.07;10.88;;;;;;;10.73;99.40;102130.31;4957271;28;20501;-77
2022/10/04 07:29:45;;;;;;;23.98;11.05;;;;;;;10.91;98.83;102122.75;4957119;28;20127;-77
2022/10/04 07:32:20;;;;;;;14.02;10.93;;;;;;;11.04;98.13;102133.56;4957360;28;20172;-77
2022/10/04 07:35:13;;;;;;;12.35;10.50;;;;;;;11.05;97.68;102132.41;4956728;28;20160;-78
2022/10/04 07:37:53;;;;;;;16.77;10.80;;;;;;;11.24;97.19;102137.00;4956650;28;20083;-78
2022/10/04 07:40:32;;;;;;;15.15;10.02;;;;;;;11.42;96.76;102135.91;4956040;28;20130;-77
2022/10/04 07:43:07;;;;;;;15.38;10.20;;;;;;;11.54;95.99;102140.63;4957174;28;20052;-77
2022/10/04 07:45:39;;;;;;;15.10;9.93;;;;;;;11.68;95.83;102143.75;4957170;28;20142;-78
2022/10/04 07:48:14;;;;;;;18.00;10.13;;;;;;;11.90;95.63;102140.66;4955752;28;20059;-78
2022/10/04 07:50:50;;;;;;;12.30;9.75;;;;;;;12.02;93.81;102143.41;4956032;28;20159;-79
2022/10/04 07:53:25;;;;;;;12.05;9.57;;;;;;;12.13;93.44;102135.19;4957280;28;20142;-81
2022/10/04 07:56:16;;;;;;;17.13;9.77;;;;;;;12.32;92.86;102142.38;4957231;28;20123;-78
2022/10/04 07:59:11;;;;;;;16.23;9.52;;;;;;;12.45;91.71;102141.69;4955858;28;20569;-79
2022/10/04 08:01:53;;;;;;;12.90;9.48;;;;;;;12.35;91.04;102148.81;4956776;28;20482;-78
2022/10/04 08:04:29;;;;;;;;;;;;;;;12.35;91.85;102149.56;4955370;28;20067;-77
2022/10/04 08:07:01;;;;;;;16.30;8.85;;;;;;;12.41;90.39;102152.44;4956704;28;19926;-79
2022/10/04 08:09:42;;;;;;;15.82;8.77;;;;;;;12.42;90.34;102145.19;4956478;28;20123;-79
2022/10/04 08:12:33;;;;;;;12.85;9.23;;;;;;;12.45;90.43;102133.66;4957496;28;20555;-78
2022/10/04 08:15:12;;;;;;;17.05;9.07;;;;;;;12.39;90.92;102130.03;4955995;28;20044;-77
2022/10/04 08:18:00;;;;;;;14.80;9.10;;;;;;;12.48;91.17;102133.59;4956405;28;20048;-77
2022/10/04 08:20:46;;;;;;;10.25;8.82;;;;;;;12.79;89.66;102149.28;4957473;28;20476;-80
2022/10/04 08:23:40;;;;;;;18.10;8.40;;;;;;;12.98;89.41;102143.78;4956073;28;20108;-75
2022/10/04 08:26:32;;;;;;;17.52;7.93;;;;;;;13.17;88.84;102139.50;4955585;28;20044;-80
2022/10/04 08:32:26;;;;;;;10.45;7.25;;;;;;;13.57;87.27;102128.47;4957040;28;20056;-75
2022/10/04 08:35:18;;;;;;;10.40;8.00;;;;;;;13.69;86.51;102125.78;4956894;28;20126;-81
2022/10/04 08:38:03;;;;;;;13.57;6.75;;;;;;;13.77;84.30;102122.91;4956565;28;20056;-78
2022/10/04 08:40:44;;;;;;;9.20;6.53;;;;;;;13.91;84.82;102128.59;4956637;28;20048;-78
2022/10/04 08:43:24;;;;;;;13.13;7.50;;;;;;;14.03;83.84;102140.47;4956976;28;20560;-80
2022/10/04 08:46:33;;;;;;;9.18;6.78;;;;;;;14.13;83.67;102130.59;4956839;28;20048;-77
2022/10/04 08:49:38;;;;;;;12.90;7.10;;;;;;;14.16;83.83;102127.81;4956065;28;20454;-77
2022/10/04 08:52:23;;;;;;;11.75;6.50;;;;;;;14.28;82.92;102124.38;4956916;28;20051;-77
2022/10/04 08:55:12;;;;;;;11.00;6.35;;;;;;;14.44;82.95;102117.41;4956707;28;20162;-77
2022/10/04 08:58:00;;;;;;;11.20;6.45;;;;;;;14.52;81.43;102132.06;4956414;28;20082;-76
2022/10/04 09:00:47;;;;;;;9.52;6.30;;;;;;;14.53;81.50;102128.94;4955549;28;20763;-76
2022/10/04 09:03:35;;;;;;;10.73;6.70;;;;;;;14.70;80.42;102128.81;4956178;28;20478;-77
2022/10/04 09:06:31;;;;;;;7.45;5.93;;;;;;;14.89;80.91;102120.47;4956702;28;20044;-77
2022/10/04 09:09:39;;;;;;;9.13;6.63;;;;;;;14.95;79.59;102132.13;4954775;28;20644;-76
2022/10/04 09:12:19;;;;;;;12.38;6.25;;;;;;;14.97;79.12;102129.00;4956350;28;20132;-76
2022/10/04 09:15:30;;;;;;;8.75;6.57;;;;;;;14.91;79.73;102123.44;4956320;28;20052;-77
2022/10/04 09:18:11;;;;;;;10.25;6.90;;;;;;;15.00;79.26;102130.81;4955652;28;20135;-78
2022/10/04 09:20:41;;;;;;;10.27;6.25;;;;;;;15.18;78.68;102133.63;4956329;28;20126;-77
2022/10/04 09:23:37;;;;;;;9.90;7.03;;;;;;;15.26;77.16;102136.78;4955944;28;20052;-79
2022/10/04 09:26:31;;;;;;;10.60;6.95;;;;;;;15.30;76.52;102130.13;4954697;28;20119;-79
2022/10/04 09:29:14;;;;;;;6.90;6.20;;;;;;;15.32;77.08;102129.69;4956111;28;20126;-77
2022/10/04 09:32:07;;;;;;;8.43;6.40;;;;;;;15.47;76.94;102127.97;4955867;28;20054;-77
2022/10/04 09:34:58;;;;;;;10.05;6.50;;;;;;;15.50;76.83;102123.69;4956087;28;20580;-77
2022/10/04 09:37:43;;;;;;;12.27;6.60;;;;;;;15.54;75.98;102121.59;4954472;28;20158;-77
2022/10/04 09:40:40;;;;;;;9.43;6.70;;;;;;;15.46;76.26;102131.84;4955850;28;20126;-77
2022/10/04 09:43:33;;;;;;;7.80;5.82;;;;;;;15.44;76.36;102117.38;4955968;28;20054;-77
2022/10/04 09:46:33;;;;;;;8.45;5.82;;;;;;;15.45;76.51;102126.94;4955414;28;20044;-78
2022/10/04 09:49:18;;;;;;;8.30;6.53;;;;;;;15.38;76.20;102127.94;4955718;28;20054;-76
2022/10/04 09:51:58;;;;;;;9.38;6.47;;;;;;;15.51;75.72;102122.50;4956004;28;20054;-76
2022/10/04 09:55:04;;;;;;;8.77;6.72;;;;;;;15.56;75.32;102125.38;4954391;28;20119;-76
2022/10/04 09:58:28;;;;;;;11.68;6.65;;;;;;;15.51;75.68;102112.50;4954868;28;20056;-77
2022/10/04 10:01:37;;;;;;;11.68;6.57;;;;;;;15.31;76.13;102112.09;4914589;29;20538;-78
2022/10/04 10:04:46;;;;;;;9.35;6.63;;;;;;;15.29;77.20;102111.78;4899261;29;20048;-76
2022/10/04 10:07:40;;;;;;;14.13;6.43;;;;;;;15.50;76.38;102104.88;4861708;29;20125;-77
2022/10/04 10:13:39;;;;;;;11.93;6.43;;;;;;;15.97;74.92;102110.75;4877505;29;20553;-76
2022/10/04 10:16:28;;;;;;;13.52;7.55;;;;;;;16.06;74.44;102104.66;4877169;29;20057;-77
2022/10/04 10:19:15;;;;;;;10.73;6.57;;;;;;;16.08;74.62;102098.84;4877234;29;20145;-77
2022/10/04 10:21:54;;;;;;;13.25;7.13;;;;;;;16.00;73.66;102098.34;4877234;29;20061;-76
2022/10/04 10:24:51;;;;;;;14.23;7.30;;;;;;;15.96;73.75;102109.28;4877406;29;20057;-76
2022/10/04 10:27:26;;;;;;;7.40;6.60;;;;;;;15.92;73.44;102114.03;4876986;29;20057;-77
2022/10/04 10:29:55;;;;;;;9.48;6.10;;;;;;;16.00;74.54;102127.91;4875981;29;20090;-76
2022/10/04 10:32:33;;;;;;;15.10;6.32;;;;;;;16.13;74.87;102127.81;4876917;29;20626;-76
2022/10/04 10:35:41;;;;;;;7.28;6.45;;;;;;;16.11;73.72;102117.50;4889313;29;20585;-76
2022/10/04 10:38:39;;;;;;;11.05;5.90;;;;;;;16.01;73.28;102116.72;4895411;29;20128;-78
2022/10/04 10:41:47;;;;;;;8.05;6.47;;;;;;;15.91;73.49;102117.16;4922598;28;20127;-76
2022/10/04 10:44:33;;;;;;;10.00;6.40;;;;;;;15.97;72.61;102118.81;4954475;28;20048;-75
2022/10/04 10:47:29;;;;;;;8.88;5.97;;;;;;;16.02;73.52;102107.47;4954952;28;20603;-77
2022/10/04 10:50:57;;;;;;;6.32;5.28;;;;;;;16.21;74.29;102099.47;4955136;28;20534;-78
2022/10/04 10:53:35;;;;;;;6.07;5.07;;;;;;;16.24;73.21;102085.88;4954934;28;20044;-76
2022/10/04 10:56:24;;;;;;;5.88;5.38;;;;;;;16.20;72.71;102085.28;4954799;28;20505;-78
2022/10/04 10:59:23;;;;;;;10.63;5.47;;;;;;;16.23;72.63;102089.75;4954515;28;20044;-76
2022/10/04 11:02:09;;;;;;;9.70;5.55;;;;;;;16.22;72.38;102088.28;4954761;28;20118;-76
2022/10/04 11:05:09;;;;;;;9.38;5.90;;;;;;;16.26;71.93;102088.88;4955002;28;20040;-75
2022/10/04 11:07:39;;;;;;;9.68;5.47;;;;;;;16.24;71.84;102085.88;4954972;28;20095;-76
2022/10/04 11:10:40;;;;;;;9.02;5.75;;;;;;;16.30;71.58;102069.94;4954737;28;20058;-75
2022/10/04 11:13:35;;;;;;;8.38;5.13;;;;;;;16.31;71.52;102072.16;4913353;29;20182;-75
2022/10/04 11:16:36;;;;;;;9.32;5.20;;;;;;;16.33;70.81;102075.16;4896696;29;20570;-75
2022/10/04 11:19:38;;;;;;;6.90;5.13;;;;;;;16.45;70.54;102075.44;4892188;29;20065;-78
2022/10/04 11:22:16;;;;;;;8.48;5.10;;;;;;;16.54;70.23;102076.19;4895233;29;20491;-74
2022/10/04 11:25:06;;;;;;;80.18;50.33;;;;;;;16.66;69.98;102067.25;4894950;29;20147;-74
2022/10/04 11:27:57;;;;;;;6.55;4.75;;;;;;;16.64;69.13;102072.34;4894409;29;20056;-75
2022/10/04 11:30:52;;;;;;;6.05;5.40;;;;;;;16.53;68.38;102060.50;4894018;29;20543;-74
2022/10/04 11:33:51;;;;;;;7.28;4.43;;;;;;;16.52;69.46;102053.66;4895120;29;20497;-75
2022/10/04 11:36:42;;;;;;;7.97;4.57;;;;;;;16.59;68.80;102061.41;4894327;29;20085;-76
2022/10/04 11:39:56;;;;;;;4.88;4.00;;;;;;;16.70;69.75;102050.22;4894829;29;20067;-77
2022/10/04 11:42:35;;;;;;;6.60;4.35;;;;;;;16.69;66.37;102046.78;4858633;29;20153;-77
2022/10/04 11:45:19;;;;;;;10.35;5.05;;;;;;;16.73;67.24;102052.78;4860945;29;20062;-77
2022/10/04 11:47:58;;;;;;;11.30;4.90;;;;;;;16.75;67.45;102047.69;4845257;29;20110;-76
2022/10/04 11:50:40;;;;;;;5.00;4.57;;;;;;;16.78;68.11;102046.78;4893016;29;20060;-76
2022/10/04 11:53:10;;;;;;;;;;;;;;;16.81;71.07;102047.81;4898668;29;20088;-74
2022/10/04 11:56:03;;;;;;;8.13;4.72;;;;;;;16.78;68.89;102049.47;4897720;29;19934;-75
2022/10/04 11:58:45;;;;;;;12.73;5.30;;;;;;;16.83;69.15;102043.47;4897739;29;20260;-74
2022/10/04 12:01:44;;;;;;;6.88;5.00;;;;;;;16.93;68.96;102044.22;4898093;29;20132;-76
2022/10/04 12:04:20;;;;;;;9.00;5.75;;;;;;;16.94;67.93;102043.75;4897658;29;20100;-75
2022/10/04 12:07:07;;;;;;;7.55;5.18;;;;;;;17.02;66.99;102046.13;4898023;29;20052;-76
2022/10/04 12:09:45;;;;;;;11.57;4.82;;;;;;;17.15;67.60;102049.38;4897788;29;20065;-77
2022/10/04 12:12:46;;;;;;;5.07;4.68;;;;;;;17.22;67.20;102035.59;4898113;29;20632;-78
2022/10/04 12:15:31;;;;;;;8.50;5.10;;;;;;;17.14;66.18;102035.19;4902024;28;20137;-76
2022/10/04 12:18:18;;;;;;;5.45;4.50;;;;;;;17.10;65.79;102039.97;4957547;28;20052;-74
2022/10/04 12:21:00;;;;;;;8.07;4.72;;;;;;;17.04;66.43;102032.97;4957204;28;20044;-76
2022/10/04 12:23:52;;;;;;;4.68;4.13;;;;;;;17.04;67.57;102022.97;4956957;28;20051;-76
2022/10/04 12:26:22;;;;;;;6.25;4.57;;;;;;;17.03;67.35;102010.72;4956600;28;20051;-76
2022/10/04 12:28:57;;;;;;;5.95;4.30;;;;;;;17.05;65.65;102012.94;4956750;28;20079;-75